Time;durP1;ratioP1;P1;durP2;ratioP2;P2;SDS_P1;SDS_P2;PMS_P1;PMS_P2;Temp;Humidity;BMP_temperature;BMP_pressure;BME280_temperature;BME280_humidity;BME280_pressure;Samples;Min_cycle;Max_cycle;Signal;HPM_P1;HPM_P2
2022/02/25 00:01:55;;;;;;;;;;;22.20;28.80;;;;;;470311;253;1220;-74
2022/02/25 00:03:57;;;;;;;;;;;22.20;28.80;;;;;;470367;254;961;-74
2022/02/25 00:05:58;;;;;;;;;;;22.10;28.90;;;;;;470312;253;1233;-74
2022/02/25 00:07:59;;;;;;;;;;;22.00;28.90;;;;;;470383;254;1289;-74
2022/02/25 00:10:01;;;;;;;;;;;22.10;28.80;;;;;;470406;254;1229;-74
2022/02/25 00:12:02;;;;;;;;;;;21.90;28.90;;;;;;470241;254;1329;-74
2022/02/25 00:14:04;;;;;;;;;;;21.90;28.80;;;;;;470272;253;2149;-74
2022/02/25 00:16:05;;;;;;;;;;;21.90;28.90;;;;;;470213;254;1522;-74
2022/02/25 00:18:06;;;;;;;;;;;21.90;28.90;;;;;;470369;254;1167;-75
2022/02/25 00:20:07;;;;;;;;;;;21.90;28.90;;;;;;470357;253;953;-74
2022/02/25 00:22:09;;;;;;;;;;;21.80;28.80;;;;;;470305;249;1272;-75
2022/02/25 00:24:10;;;;;;;;;;;21.90;28.80;;;;;;470400;254;1061;-74
2022/02/25 00:26:11;;;;;;;;;;;21.90;28.80;;;;;;470313;254;1260;-74
2022/02/25 00:28:13;;;;;;;;;;;21.90;28.80;;;;;;470341;253;939;-74
2022/02/25 00:30:14;;;;;;;;;;;21.80;28.80;;;;;;470321;253;962;-74
2022/02/25 00:32:15;;;;;;;;;;;21.80;28.80;;;;;;470223;253;1192;-74
2022/02/25 00:34:17;;;;;;;;;;;21.90;28.80;;;;;;470287;254;2191;-74
2022/02/25 00:36:18;;;;;;;;;;;21.90;28.70;;;;;;470229;254;1180;-74
2022/02/25 00:38:19;;;;;;;;;;;21.80;28.80;;;;;;470292;253;1098;-74
2022/02/25 00:40:21;;;;;;;;;;;21.80;28.80;;;;;;470307;254;1063;-74
2022/02/25 00:42:22;;;;;;;;;;;21.90;28.80;;;;;;470277;254;1266;-74
2022/02/25 00:44:24;;;;;;;;;;;21.90;28.80;;;;;;470314;254;973;-74
2022/02/25 00:46:25;;;;;;;;;;;21.80;28.80;;;;;;470262;253;1258;-74
2022/02/25 00:48:26;;;;;;;;;;;21.80;28.70;;;;;;470311;254;982;-74
2022/02/25 00:50:27;;;;;;;;;;;21.90;28.80;;;;;;470333;253;1064;-74
2022/02/25 00:52:29;;;;;;;;;;;21.80;28.80;;;;;;470243;254;1168;-74
2022/02/25 00:54:30;;;;;;;;;;;21.80;28.80;;;;;;470330;253;2214;-74
2022/02/25 00:56:31;;;;;;;;;;;21.90;28.80;;;;;;470243;248;1250;-74
2022/02/25 00:58:33;;;;;;;;;;;22.00;28.70;;;;;;470324;253;948;-74
2022/02/25 01:00:34;;;;;;;;;;;22.00;28.60;;;;;;470267;253;975;-74
2022/02/25 01:02:35;;;;;;;;;;;21.90;28.70;;;;;;470329;254;1158;-74
2022/02/25 01:04:37;;;;;;;;;;;21.70;28.80;;;;;;470330;254;944;-74
2022/02/25 01:06:38;;;;;;;;;;;21.60;29.00;;;;;;470324;249;1226;-74
2022/02/25 01:08:39;;;;;;;;;;;21.60;28.90;;;;;;470314;254;1128;-74
2022/02/25 01:10:41;;;;;;;;;;;21.60;29.00;;;;;;470300;254;1081;-74
2022/02/25 01:12:42;;;;;;;;;;;21.60;29.00;;;;;;470412;253;1202;-74
2022/02/25 01:14:43;;;;;;;;;;;21.60;29.10;;;;;;470350;253;2198;-74
2022/02/25 01:16:45;;;;;;;;;;;21.50;29.10;;;;;;470319;254;1191;-74
2022/02/25 01:18:46;;;;;;;;;;;21.60;29.00;;;;;;470317;254;968;-74
2022/02/25 01:20:47;;;;;;;;;;;21.60;29.00;;;;;;470329;254;1241;-75
2022/02/25 01:22:49;;;;;;;;;;;21.60;29.00;;;;;;470355;254;1167;-74
2022/02/25 01:24:50;;;;;;;;;;;21.60;29.00;;;;;;470347;253;1212;-74
2022/02/25 01:26:52;;;;;;;;;;;21.60;29.00;;;;;;470212;254;1130;-74
2022/02/25 01:28:53;;;;;;;;;;;21.60;29.00;;;;;;470296;253;959;-74
2022/02/25 01:30:54;;;;;;;;;;;21.60;29.00;;;;;;470241;254;1353;-74
2022/02/25 01:32:55;;;;;;;;;;;21.60;29.00;;;;;;470302;253;1089;-74
2022/02/25 01:34:57;;;;;;;;;;;21.60;29.10;;;;;;470355;253;2191;-74
2022/02/25 01:36:58;;;;;;;;;;;21.40;29.10;;;;;;470295;253;1186;-74
2022/02/25 01:39:02;;;;;;;;;;;21.60;29.10;;;;;;470271;254;1205;-75
2022/02/25 01:41:01;;;;;;;;;;;21.70;29.00;;;;;;470128;253;1424;-74
2022/02/25 01:43:02;;;;;;;;;;;21.80;28.90;;;;;;470309;254;1158;-75
2022/02/25 01:45:03;;;;;;;;;;;22.00;28.70;;;;;;470360;254;951;-74
2022/02/25 01:47:05;;;;;;;;;;;22.10;28.60;;;;;;470168;254;1357;-74
2022/02/25 01:49:06;;;;;;;;;;;22.10;28.50;;;;;;470346;254;929;-74
2022/02/25 01:51:07;;;;;;;;;;;22.20;28.50;;;;;;470246;254;1253;-74
2022/02/25 01:53:09;;;;;;;;;;;22.30;28.50;;;;;;470266;253;1207;-74
2022/02/25 01:55:10;;;;;;;;;;;22.40;28.40;;;;;;470300;253;2203;-74
2022/02/25 01:57:11;;;;;;;;;;;22.40;28.30;;;;;;470152;254;1231;-74
2022/02/25 01:59:13;;;;;;;;;;;22.40;28.30;;;;;;470346;253;1188;-74
2022/02/25 02:01:14;;;;;;;;;;;22.40;28.40;;;;;;470236;254;1214;-74
2022/02/25 02:03:15;;;;;;;;;;;22.40;28.30;;;;;;470262;254;1084;-74
2022/02/25 02:05:17;;;;;;;;;;;22.40;28.30;;;;;;470334;253;1345;-74
2022/02/25 02:07:18;;;;;;;;;;;22.40;28.30;;;;;;470257;254;1166;-75
2022/02/25 02:09:19;;;;;;;;;;;22.30;28.40;;;;;;470356;253;1157;-74
2022/02/25 02:11:21;;;;;;;;;;;22.20;28.50;;;;;;470203;253;1115;-74
2022/02/25 02:13:22;;;;;;;;;;;22.10;28.60;;;;;;470332;254;1150;-74
2022/02/25 02:15:24;;;;;;;;;;;22.00;28.70;;;;;;470309;254;2240;-74
2022/02/25 02:17:25;;;;;;;;;;;21.90;28.70;;;;;;470246;254;1280;-75
2022/02/25 02:19:26;;;;;;;;;;;22.00;28.70;;;;;;470361;254;988;-75
2022/02/25 02:21:28;;;;;;;;;;;21.90;28.80;;;;;;470251;254;1239;-74
2022/02/25 02:23:29;;;;;;;;;;;21.90;28.80;;;;;;470287;254;1156;-74
2022/02/25 02:25:30;;;;;;;;;;;21.90;28.80;;;;;;470380;253;972;-74
2022/02/25 02:29:52;;;;;;;;;;;21.90;28.80;;;;;;470290;253;1173;-74
2022/02/25 02:31:53;;;;;;;;;;;21.90;28.80;;;;;;470232;254;1244;-74
2022/02/25 02:33:54;;;;;;;;;;;21.80;28.80;;;;;;470305;253;1117;-74
2022/02/25 02:35:56;;;;;;;;;;;21.70;28.90;;;;;;470307;254;2116;-74
2022/02/25 02:37:57;;;;;;;;;;;21.90;28.80;;;;;;470277;253;1301;-74
2022/02/25 02:39:58;;;;;;;;;;;21.90;28.70;;;;;;470286;254;1232;-74
2022/02/25 02:42:00;;;;;;;;;;;21.90;28.70;;;;;;470318;254;1173;-74
2022/02/25 02:44:01;;;;;;;;;;;21.80;28.70;;;;;;470322;253;974;-74
2022/02/25 02:46:02;;;;;;;;;;;21.80;28.80;;;;;;470299;248;1245;-74
2022/02/25 02:48:04;;;;;;;;;;;21.80;28.80;;;;;;470266;254;1089;-74
2022/02/25 02:50:05;;;;;;;;;;;21.80;28.80;;;;;;470411;253;1565;-74
2022/02/25 02:52:06;;;;;;;;;;;21.70;28.70;;;;;;470248;254;1223;-74
2022/02/25 02:54:08;;;;;;;;;;;21.70;28.70;;;;;;470311;253;1162;-74
2022/02/25 02:56:10;;;;;;;;;;;21.70;28.70;;;;;;470224;254;2198;-74
2022/02/25 02:58:11;;;;;;;;;;;21.70;28.70;;;;;;470336;253;955;-74
2022/02/25 03:00:13;;;;;;;;;;;21.70;28.60;;;;;;470252;254;966;-74
2022/02/25 03:02:14;;;;;;;;;;;21.70;28.60;;;;;;470234;254;1169;-74
2022/02/25 03:04:15;;;;;;;;;;;21.60;28.60;;;;;;470355;254;1091;-74
2022/02/25 03:06:17;;;;;;;;;;;21.70;28.60;;;;;;470279;253;1232;-74
2022/02/25 03:08:18;;;;;;;;;;;21.60;28.60;;;;;;470396;253;1188;-75
2022/02/25 03:10:19;;;;;;;;;;;21.80;28.50;;;;;;470375;254;1202;-74
2022/02/25 03:12:21;;;;;;;;;;;21.80;28.40;;;;;;470218;253;1210;-74
2022/02/25 03:14:22;;;;;;;;;;;21.80;28.40;;;;;;470288;253;955;-74
2022/02/25 03:16:23;;;;;;;;;;;21.70;28.30;;;;;;470250;249;2124;-74
2022/02/25 03:18:25;;;;;;;;;;;21.60;28.40;;;;;;470299;254;1032;-74
2022/02/25 03:20:26;;;;;;;;;;;21.70;28.50;;;;;;470326;253;1203;-74
2022/02/25 03:22:27;;;;;;;;;;;21.70;28.40;;;;;;470345;253;1202;-74
2022/02/25 03:24:29;;;;;;;;;;;21.60;28.40;;;;;;470359;254;1154;-75
2022/02/25 03:26:30;;;;;;;;;;;21.60;28.40;;;;;;470226;254;1216;-74
2022/02/25 03:28:31;;;;;;;;;;;21.70;28.40;;;;;;470336;253;1119;-74
2022/02/25 03:30:33;;;;;;;;;;;21.70;28.40;;;;;;470300;254;1244;-74
2022/02/25 03:32:34;;;;;;;;;;;21.70;28.30;;;;;;470189;253;1263;-74
2022/02/25 03:34:35;;;;;;;;;;;21.60;28.40;;;;;;470261;254;978;-74
2022/02/25 03:36:37;;;;;;;;;;;21.60;28.30;;;;;;470187;253;2137;-74
2022/02/25 03:38:38;;;;;;;;;;;21.60;28.40;;;;;;470243;253;1119;-74
2022/02/25 03:40:39;;;;;;;;;;;21.60;28.40;;;;;;470283;253;1243;-74
2022/02/25 03:42:41;;;;;;;;;;;21.60;28.30;;;;;;470299;254;1168;-74
2022/02/25 03:44:42;;;;;;;;;;;21.70;28.30;;;;;;470357;254;971;-74
2022/02/25 03:46:43;;;;;;;;;;;21.70;28.30;;;;;;470222;254;1217;-74
2022/02/25 03:48:45;;;;;;;;;;;21.80;28.10;;;;;;470270;253;947;-74
2022/02/25 03:50:46;;;;;;;;;;;21.90;28.10;;;;;;470246;254;993;-74
2022/02/25 03:52:47;;;;;;;;;;;21.90;28.00;;;;;;470340;254;1273;-75
2022/02/25 03:54:48;;;;;;;;;;;22.00;28.00;;;;;;470305;254;1073;-74
2022/02/25 03:56:50;;;;;;;;;;;22.00;27.90;;;;;;470313;253;2199;-74
2022/02/25 03:58:52;;;;;;;;;;;22.10;27.80;;;;;;470369;254;954;-74
2022/02/25 04:00:53;;;;;;;;;;;22.10;27.80;;;;;;470356;253;1003;-74
2022/02/25 04:02:56;;;;;;;;;;;22.30;27.60;;;;;;470244;253;978;-74
2022/02/25 04:04:56;;;;;;;;;;;22.30;27.60;;;;;;470363;254;1830;-74
2022/02/25 04:06:58;;;;;;;;;;;22.40;27.60;;;;;;470267;254;1134;-74
2022/02/25 04:08:59;;;;;;;;;;;22.40;27.50;;;;;;470359;253;1004;-74
2022/02/25 04:11:00;;;;;;;;;;;22.30;27.60;;;;;;470243;253;1559;-74
2022/02/25 04:13:02;;;;;;;;;;;22.20;27.60;;;;;;470303;254;1175;-74
2022/02/25 04:15:04;;;;;;;;;;;22.10;27.60;;;;;;470304;254;953;-74
2022/02/25 04:17:05;;;;;;;;;;;22.20;27.70;;;;;;470191;254;2183;-74
2022/02/25 04:19:06;;;;;;;;;;;22.20;27.60;;;;;;470321;254;979;-75
2022/02/25 04:21:08;;;;;;;;;;;22.10;27.70;;;;;;470185;253;1261;-74
2022/02/25 04:23:09;;;;;;;;;;;22.00;27.70;;;;;;470396;254;1309;-74
2022/02/25 04:25:10;;;;;;;;;;;21.90;27.70;;;;;;470357;253;1186;-75
2022/02/25 04:27:12;;;;;;;;;;;21.80;27.90;;;;;;470267;254;1213;-75
2022/02/25 04:29:13;;;;;;;;;;;21.80;27.90;;;;;;470345;254;977;-74
2022/02/25 04:31:14;;;;;;;;;;;21.80;27.80;;;;;;470299;253;1164;-74
2022/02/25 04:33:16;;;;;;;;;;;21.80;27.80;;;;;;470275;253;1164;-74
2022/02/25 04:35:19;;;;;;;;;;;21.70;27.90;;;;;;470300;254;2136;-74
2022/02/25 04:37:18;;;;;;;;;;;21.70;27.90;;;;;;470038;253;1597;-74
2022/02/25 04:39:20;;;;;;;;;;;21.70;27.90;;;;;;470308;253;932;-74
2022/02/25 04:41:21;;;;;;;;;;;21.90;27.80;;;;;;470205;253;1193;-74
2022/02/25 04:43:22;;;;;;;;;;;21.70;27.90;;;;;;470320;254;1004;-74
2022/02/25 04:45:24;;;;;;;;;;;21.80;27.80;;;;;;470384;253;970;-74
2022/02/25 04:47:25;;;;;;;;;;;21.80;27.80;;;;;;470382;253;1236;-74
2022/02/25 04:49:26;;;;;;;;;;;21.70;27.80;;;;;;470410;253;1078;-74
2022/02/25 04:51:28;;;;;;;;;;;21.80;27.80;;;;;;470312;254;1220;-74
2022/02/25 04:53:29;;;;;;;;;;;21.60;27.90;;;;;;470461;253;1055;-74
2022/02/25 04:55:30;;;;;;;;;;;21.70;27.80;;;;;;470317;254;2247;-74
2022/02/25 04:57:32;;;;;;;;;;;21.80;27.80;;;;;;470301;253;1172;-74
2022/02/25 04:59:33;;;;;;;;;;;21.70;27.80;;;;;;470346;253;957;-74
2022/02/25 05:01:34;;;;;;;;;;;21.70;27.80;;;;;;470199;253;1139;-74
2022/02/25 05:03:37;;;;;;;;;;;21.70;27.80;;;;;;470245;253;1123;-74
2022/02/25 05:05:37;;;;;;;;;;;21.80;27.80;;;;;;470256;253;1425;-74
2022/02/25 05:07:38;;;;;;;;;;;21.70;27.80;;;;;;470278;254;1109;-74
2022/02/25 05:09:40;;;;;;;;;;;21.60;27.80;;;;;;470277;253;958;-74
2022/02/25 05:11:41;;;;;;;;;;;21.80;27.80;;;;;;470281;248;1197;-74
2022/02/25 05:13:42;;;;;;;;;;;21.70;27.80;;;;;;470305;254;1302;-74
2022/02/25 05:20:25;;;;;;;;;;;21.60;27.90;;;;;;470199;252;987;-74
2022/02/25 05:22:26;;;;;;;;;;;21.70;27.90;;;;;;470163;254;1125;-75
2022/02/25 05:24:28;;;;;;;;;;;21.70;27.80;;;;;;470203;253;1087;-75
2022/02/25 05:26:29;;;;;;;;;;;21.70;27.80;;;;;;470108;254;1311;-74
2022/02/25 05:28:31;;;;;;;;;;;21.80;27.70;;;;;;470052;253;974;-74
2022/02/25 05:30:32;;;;;;;;;;;21.70;27.70;;;;;;470050;254;978;-74
2022/02/25 05:32:33;;;;;;;;;;;21.70;27.70;;;;;;470072;254;1134;-74
2022/02/25 05:34:35;;;;;;;;;;;21.70;27.80;;;;;;470171;254;1212;-74
2022/02/25 05:36:36;;;;;;;;;;;21.60;27.80;;;;;;470061;253;2135;-74
2022/02/25 05:38:37;;;;;;;;;;;21.60;27.80;;;;;;470036;254;1133;-74
2022/02/25 05:40:39;;;;;;;;;;;21.70;27.80;;;;;;470030;253;1172;-74
2022/02/25 05:42:41;;;;;;;;;;;21.60;27.70;;;;;;469962;254;1129;-74
2022/02/25 05:44:41;;;;;;;;;;;21.60;27.80;;;;;;470177;253;1339;-74
2022/02/25 05:46:43;;;;;;;;;;;21.60;27.80;;;;;;470007;253;1225;-74
2022/02/25 05:48:44;;;;;;;;;;;21.60;27.70;;;;;;470136;254;1075;-74
2022/02/25 05:50:46;;;;;;;;;;;21.60;27.80;;;;;;470000;253;1069;-74
2022/02/25 05:52:47;;;;;;;;;;;21.50;27.80;;;;;;470040;254;1172;-74
2022/02/25 05:54:48;;;;;;;;;;;21.50;27.90;;;;;;470005;254;1039;-74
2022/02/25 05:56:50;;;;;;;;;;;21.50;27.80;;;;;;470020;254;2203;-74
2022/02/25 05:58:51;;;;;;;;;;;21.60;27.90;;;;;;470088;253;1021;-75
2022/02/25 06:00:52;;;;;;;;;;;21.50;27.80;;;;;;470120;253;1173;-74
2022/02/25 06:02:54;;;;;;;;;;;21.50;27.80;;;;;;470057;254;1124;-74
2022/02/25 06:04:55;;;;;;;;;;;21.50;27.80;;;;;;470054;254;1092;-74
2022/02/25 06:06:56;;;;;;;;;;;21.50;27.80;;;;;;470011;254;1208;-74
2022/02/25 06:08:58;;;;;;;;;;;21.50;27.70;;;;;;469960;253;1035;-74
2022/02/25 06:10:59;;;;;;;;;;;21.50;27.70;;;;;;469950;254;1249;-75
2022/02/25 06:13:00;;;;;;;;;;;21.50;27.70;;;;;;469945;253;1219;-75
2022/02/25 06:15:01;;;;;;;;;;;21.50;27.70;;;;;;469988;253;933;-74
2022/02/25 06:17:03;;;;;;;;;;;21.50;27.70;;;;;;469905;254;2202;-74
2022/02/25 06:19:04;;;;;;;;;;;21.50;27.70;;;;;;469965;253;966;-74
2022/02/25 06:21:06;;;;;;;;;;;21.50;27.70;;;;;;469890;253;1140;-74
2022/02/25 06:23:07;;;;;;;;;;;21.50;27.70;;;;;;469987;253;1095;-74
2022/02/25 06:25:08;;;;;;;;;;;21.40;27.60;;;;;;469990;254;1007;-74
2022/02/25 06:27:09;;;;;;;;;;;21.60;27.60;;;;;;469927;254;1334;-75
2022/02/25 06:29:12;;;;;;;;;;;21.50;27.50;;;;;;469932;253;1046;-74
2022/02/25 06:31:12;;;;;;;;;;;21.60;27.50;;;;;;469939;254;1397;-74
2022/02/25 06:33:13;;;;;;;;;;;21.70;27.30;;;;;;469914;254;995;-74
2022/02/25 06:35:15;;;;;;;;;;;21.70;27.30;;;;;;469976;253;1059;-74
2022/02/25 06:37:16;;;;;;;;;;;21.60;27.30;;;;;;469948;254;2211;-74
2022/02/25 06:39:17;;;;;;;;;;;21.60;27.30;;;;;;469936;253;1083;-75
2022/02/25 06:41:19;;;;;;;;;;;21.80;27.20;;;;;;469906;253;1257;-74
2022/02/25 06:43:20;;;;;;;;;;;21.90;27.10;;;;;;469908;253;1253;-74
2022/02/25 06:45:22;;;;;;;;;;;21.90;27.00;;;;;;469912;253;981;-74
2022/02/25 06:47:23;;;;;;;;;;;22.00;27.00;;;;;;469940;253;987;-74
2022/02/25 06:49:24;;;;;;;;;;;22.10;26.80;;;;;;469935;254;992;-75
2022/02/25 06:51:26;;;;;;;;;;;22.20;26.70;;;;;;469854;253;965;-74
2022/02/25 06:53:27;;;;;;;;;;;22.20;26.70;;;;;;469977;254;1118;-74
2022/02/25 06:55:28;;;;;;;;;;;22.30;26.70;;;;;;470001;253;976;-74
2022/02/25 06:57:30;;;;;;;;;;;22.20;26.60;;;;;;469950;254;2163;-74
2022/02/25 06:59:31;;;;;;;;;;;22.20;26.60;;;;;;470182;254;1226;-75
2022/02/25 07:01:32;;;;;;;;;;;22.20;26.60;;;;;;469910;253;981;-75
2022/02/25 07:03:33;;;;;;;;;;;22.10;26.60;;;;;;469879;254;1121;-75
2022/02/25 07:05:39;;;;;;;;;;;22.10;26.60;;;;;;469890;253;1029;-75
2022/02/25 07:07:36;;;;;;;;;;;22.10;26.60;;;;;;469916;253;1455;-75
2022/02/25 07:09:39;;;;;;;;;;;22.10;26.60;;;;;;469942;254;1302;-74
2022/02/25 07:11:39;;;;;;;;;;;22.00;26.70;;;;;;469723;253;1342;-74
2022/02/25 07:13:40;;;;;;;;;;;21.90;26.70;;;;;;469826;254;982;-75
2022/02/25 07:15:41;;;;;;;;;;;21.80;26.70;;;;;;470080;254;949;-74
2022/02/25 07:17:43;;;;;;;;;;;21.80;26.80;;;;;;469929;254;2182;-74
2022/02/25 07:19:44;;;;;;;;;;;21.70;26.80;;;;;;469811;254;980;-74
2022/02/25 07:21:45;;;;;;;;;;;21.60;26.70;;;;;;469878;253;1248;-74
2022/02/25 07:23:47;;;;;;;;;;;21.70;26.80;;;;;;469721;254;1087;-74
2022/02/25 07:25:48;;;;;;;;;;;21.60;26.80;;;;;;469745;254;1203;-75
2022/02/25 07:27:49;;;;;;;;;;;21.60;26.70;;;;;;469640;254;1347;-74
2022/02/25 07:29:52;;;;;;;;;;;21.80;26.70;;;;;;469652;253;1083;-74
2022/02/25 07:31:52;;;;;;;;;;;21.70;26.70;;;;;;469630;254;1436;-74
2022/02/25 07:33:53;;;;;;;;;;;21.60;26.70;;;;;;469502;253;1074;-74
2022/02/25 07:35:55;;;;;;;;;;;21.60;26.70;;;;;;469687;254;1244;-74
2022/02/25 07:37:56;;;;;;;;;;;21.60;26.70;;;;;;469709;253;2135;-74
2022/02/25 07:39:57;;;;;;;;;;;21.70;26.50;;;;;;469767;253;1046;-74
2022/02/25 07:41:59;;;;;;;;;;;21.70;26.50;;;;;;469590;253;1187;-74
2022/02/25 07:44:00;;;;;;;;;;;21.80;26.50;;;;;;469566;253;1338;-74
2022/02/25 07:46:01;;;;;;;;;;;21.60;26.50;;;;;;469373;254;1065;-74
2022/02/25 07:48:03;;;;;;;;;;;21.60;26.60;;;;;;469488;254;1141;-74
2022/02/25 07:50:04;;;;;;;;;;;21.60;26.50;;;;;;469337;253;1024;-74
2022/02/25 07:52:05;;;;;;;;;;;21.60;26.60;;;;;;469476;254;1207;-74
2022/02/25 07:54:07;;;;;;;;;;;21.60;26.60;;;;;;469565;253;1065;-74
2022/02/25 07:56:08;;;;;;;;;;;21.60;26.60;;;;;;469417;254;1242;-74
2022/02/25 07:58:09;;;;;;;;;;;21.60;26.60;;;;;;469418;254;2203;-74
2022/02/25 08:00:15;;;;;;;;;;;21.70;26.60;;;;;;469391;254;1141;-75
2022/02/25 08:02:12;;;;;;;;;;;21.60;26.50;;;;;;469437;253;1346;-75
2022/02/25 08:04:13;;;;;;;;;;;21.60;26.50;;;;;;469734;254;1010;-74
2022/02/25 08:06:15;;;;;;;;;;;21.60;26.60;;;;;;469815;254;1440;-75
2022/02/25 08:08:16;;;;;;;;;;;21.60;26.60;;;;;;469970;254;969;-75
2022/02/25 08:10:17;;;;;;;;;;;21.50;26.60;;;;;;469942;254;1102;-74
2022/02/25 08:12:19;;;;;;;;;;;21.50;26.60;;;;;;469866;254;1220;-75
2022/02/25 08:14:20;;;;;;;;;;;21.40;26.60;;;;;;469921;254;963;-75
2022/02/25 08:16:22;;;;;;;;;;;21.50;26.70;;;;;;469909;254;1247;-75
2022/02/25 08:18:23;;;;;;;;;;;21.40;26.70;;;;;;469794;253;2187;-75
2022/02/25 08:20:24;;;;;;;;;;;21.40;26.60;;;;;;469823;253;1261;-75
2022/02/25 08:22:26;;;;;;;;;;;21.30;26.70;;;;;;469751;254;1129;-75
2022/02/25 08:24:27;;;;;;;;;;;21.20;26.70;;;;;;469799;254;983;-75
2022/02/25 08:26:28;;;;;;;;;;;21.30;26.70;;;;;;469808;254;1216;-75
2022/02/25 08:28:30;;;;;;;;;;;21.30;26.70;;;;;;469868;253;1102;-75
2022/02/25 08:30:31;;;;;;;;;;;21.30;26.60;;;;;;469897;252;1215;-75
2022/02/25 08:32:32;;;;;;;;;;;21.20;26.70;;;;;;469816;253;1316;-75
2022/02/25 08:34:34;;;;;;;;;;;21.20;26.60;;;;;;469518;254;1159;-61
2022/02/25 08:36:35;;;;;;;;;;;21.10;26.70;;;;;;469365;253;1328;-56
2022/02/25 08:38:36;;;;;;;;;;;22.10;25.90;;;;;;469457;253;2206;-61
2022/02/25 08:40:38;;;;;;;;;;;22.50;25.50;;;;;;469326;254;1208;-58
2022/02/25 08:42:39;;;;;;;;;;;22.60;25.40;;;;;;469487;253;1272;-58
2022/02/25 08:44:42;;;;;;;;;;;22.70;25.30;;;;;;469549;254;1044;-58
2022/02/25 08:46:42;;;;;;;;;;;23.00;25.20;;;;;;469179;253;2061;-62
2022/02/25 08:48:43;;;;;;;;;;;22.70;25.30;;;;;;469281;253;1177;-60
2022/02/25 08:50:45;;;;;;;;;;;22.80;25.20;;;;;;469202;253;1210;-60
2022/02/25 08:52:46;;;;;;;;;;;23.00;25.00;;;;;;469163;253;1292;-56
2022/02/25 08:54:47;;;;;;;;;;;23.30;24.90;;;;;;469277;254;1296;-56
2022/02/25 08:56:49;;;;;;;;;;;23.40;24.70;;;;;;469452;252;2233;-58
2022/02/25 08:58:51;;;;;;;;;;;23.60;24.60;;;;;;469403;254;1175;-60
2022/02/25 09:00:51;;;;;;;;;;;23.60;24.50;;;;;;469392;254;1907;-61
2022/02/25 09:02:53;;;;;;;;;;;23.70;24.50;;;;;;469384;253;1169;-61
2022/02/25 09:04:55;;;;;;;;;;;23.60;24.50;;;;;;469324;253;1026;-60
2022/02/25 09:06:55;;;;;;;;;;;23.50;24.50;;;;;;469299;254;1401;-60
2022/02/25 09:08:57;;;;;;;;;;;23.50;24.60;;;;;;469481;254;1100;-62
2022/02/25 09:10:58;;;;;;;;;;;23.20;24.90;;;;;;469490;253;1394;-59
2022/02/25 09:12:59;;;;;;;;;;;22.90;25.10;;;;;;469947;252;1122;-60
2022/02/25 09:15:00;;;;;;;;;;;22.60;25.20;;;;;;469568;253;1066;-60
2022/02/25 09:17:02;;;;;;;;;;;22.40;25.40;;;;;;469303;254;2206;-60
2022/02/25 09:19:03;;;;;;;;;;;22.30;25.50;;;;;;469542;254;2352;-59
2022/02/25 09:21:04;;;;;;;;;;;22.10;25.50;;;;;;469488;253;1381;-60
2022/02/25 09:23:06;;;;;;;;;;;22.10;25.60;;;;;;469449;254;1162;-60
2022/02/25 09:25:07;;;;;;;;;;;22.10;25.60;;;;;;469468;254;1170;-60
2022/02/25 09:27:08;;;;;;;;;;;22.10;25.50;;;;;;469255;253;1212;-59
2022/02/25 09:29:10;;;;;;;;;;;22.10;25.40;;;;;;469428;253;1234;-60
2022/02/25 09:31:11;;;;;;;;;;;22.40;25.10;;;;;;469363;253;1287;-60
2022/02/25 09:33:12;;;;;;;;;;;22.60;25.00;;;;;;469631;253;1199;-60
2022/02/25 09:35:14;;;;;;;;;;;22.40;25.10;;;;;;469542;253;1228;-60
2022/02/25 09:37:15;;;;;;;;;;;22.20;25.20;;;;;;469456;253;2199;-60
2022/02/25 09:39:16;;;;;;;;;;;22.20;25.30;;;;;;469436;254;1133;-61
2022/02/25 09:41:18;;;;;;;;;;;22.10;25.40;;;;;;469332;254;1223;-58
2022/02/25 09:43:19;;;;;;;;;;;22.10;25.40;;;;;;469294;253;1184;-74
2022/02/25 09:45:20;;;;;;;;;;;22.00;25.40;;;;;;469338;253;1067;-75
2022/02/25 09:47:22;;;;;;;;;;;21.60;25.60;;;;;;469365;254;1130;-75
2022/02/25 09:49:23;;;;;;;;;;;21.50;25.70;;;;;;469414;254;1017;-74
2022/02/25 09:51:24;;;;;;;;;;;21.20;25.80;;;;;;469184;254;1238;-73
2022/02/25 09:53:26;;;;;;;;;;;21.10;25.90;;;;;;469046;254;1084;-73
2022/02/25 09:55:27;;;;;;;;;;;21.10;25.90;;;;;;469205;253;1034;-73
2022/02/25 09:57:28;;;;;;;;;;;21.10;25.90;;;;;;469381;253;2207;-73
2022/02/25 09:59:30;;;;;;;;;;;21.10;26.00;;;;;;469531;253;1214;-73
2022/02/25 10:01:31;;;;;;;;;;;21.00;26.00;;;;;;469453;253;1303;-73
2022/02/25 10:03:35;;;;;;;;;;;21.10;25.90;;;;;;469470;253;1234;-73
2022/02/25 10:05:35;;;;;;;;;;;21.10;25.90;;;;;;469583;248;1522;-73
2022/02/25 10:07:36;;;;;;;;;;;21.00;25.90;;;;;;469737;253;1164;-73
2022/02/25 10:09:39;;;;;;;;;;;21.00;25.90;;;;;;469516;253;1018;-73
2022/02/25 10:11:39;;;;;;;;;;;21.00;25.90;;;;;;469189;253;1396;-73
2022/02/25 10:13:40;;;;;;;;;;;21.00;26.00;;;;;;469371;253;1333;-73
2022/02/25 10:15:42;;;;;;;;;;;21.00;26.00;;;;;;469316;253;1262;-73
2022/02/25 10:17:43;;;;;;;;;;;21.00;25.90;;;;;;469295;253;2140;-73
2022/02/25 10:19:45;;;;;;;;;;;21.00;25.90;;;;;;469369;253;1250;-73
2022/02/25 10:21:46;;;;;;;;;;;21.00;25.80;;;;;;469444;253;1325;-73
2022/02/25 10:23:47;;;;;;;;;;;21.10;25.70;;;;;;469438;253;1026;-73
2022/02/25 10:25:49;;;;;;;;;;;21.10;25.70;;;;;;469399;253;1299;-73
2022/02/25 10:27:51;;;;;;;;;;;21.00;25.70;;;;;;469345;254;1223;-73
2022/02/25 10:29:52;;;;;;;;;;;21.00;25.70;;;;;;469389;253;1435;-73
2022/02/25 10:31:53;;;;;;;;;;;20.90;25.80;;;;;;469575;254;1193;-73
2022/02/25 10:33:55;;;;;;;;;;;20.90;25.80;;;;;;469466;254;1043;-73
2022/02/25 10:35:56;;;;;;;;;;;20.90;25.70;;;;;;469289;248;1271;-73
2022/02/25 10:37:57;;;;;;;;;;;20.90;25.70;;;;;;469334;254;2183;-73
2022/02/25 10:39:59;;;;;;;;;;;20.80;25.70;;;;;;469390;253;979;-73
2022/02/25 10:42:00;;;;;;;;;;;20.70;25.70;;;;;;469257;253;1112;-73
2022/02/25 10:44:01;;;;;;;;;;;20.90;25.70;;;;;;469333;253;1157;-73
2022/02/25 10:46:03;;;;;;;;;;;20.80;25.60;;;;;;469197;253;1169;-73
2022/02/25 10:48:04;;;;;;;;;;;20.80;25.60;;;;;;469457;254;1362;-73
2022/02/25 10:50:05;;;;;;;;;;;20.90;25.50;;;;;;469493;253;1069;-75
2022/02/25 10:52:07;;;;;;;;;;;20.90;25.40;;;;;;469456;253;1296;-73
2022/02/25 10:54:08;;;;;;;;;;;21.00;25.40;;;;;;469468;254;1171;-73
2022/02/25 10:56:09;;;;;;;;;;;20.90;25.40;;;;;;469506;253;1343;-73
2022/02/25 10:58:10;;;;;;;;;;;21.00;25.40;;;;;;469346;253;2191;-73
2022/02/25 11:00:12;;;;;;;;;;;20.90;25.40;;;;;;469214;254;1230;-73
2022/02/25 11:02:13;;;;;;;;;;;20.90;25.40;;;;;;469263;254;1463;-73
2022/02/25 11:04:14;;;;;;;;;;;20.90;25.40;;;;;;469467;253;1082;-73
2022/02/25 11:06:16;;;;;;;;;;;20.80;25.40;;;;;;469397;254;1237;-73
2022/02/25 11:08:17;;;;;;;;;;;20.80;25.50;;;;;;469386;253;1059;-73
2022/02/25 11:10:18;;;;;;;;;;;20.70;25.50;;;;;;469496;253;1252;-73
2022/02/25 11:12:20;;;;;;;;;;;20.70;25.50;;;;;;469408;254;1160;-73
2022/02/25 11:14:21;;;;;;;;;;;20.80;25.40;;;;;;469424;253;1183;-73
2022/02/25 11:16:22;;;;;;;;;;;20.90;25.40;;;;;;469235;254;1136;-74
2022/02/25 11:18:24;;;;;;;;;;;20.90;25.40;;;;;;469263;254;2194;-74
2022/02/25 11:20:25;;;;;;;;;;;20.90;25.30;;;;;;469222;253;987;-74
2022/02/25 11:22:27;;;;;;;;;;;21.00;25.30;;;;;;469196;253;1283;-74
2022/02/25 11:24:28;;;;;;;;;;;20.90;25.20;;;;;;469469;253;1270;-74
2022/02/25 11:26:29;;;;;;;;;;;20.90;25.30;;;;;;469449;254;1223;-74
2022/02/25 11:28:30;;;;;;;;;;;20.90;25.30;;;;;;469560;254;1010;-74
2022/02/25 11:30:32;;;;;;;;;;;20.90;25.20;;;;;;469938;254;1411;-74
2022/02/25 11:32:33;;;;;;;;;;;20.90;25.20;;;;;;469799;253;1154;-74
2022/02/25 11:34:34;;;;;;;;;;;20.70;25.30;;;;;;469650;254;1316;-74
2022/02/25 11:36:36;;;;;;;;;;;20.70;25.40;;;;;;469647;253;1288;-74
2022/02/25 11:38:38;;;;;;;;;;;20.60;25.40;;;;;;469802;254;2131;-74
2022/02/25 11:40:38;;;;;;;;;;;20.60;25.40;;;;;;469368;254;2211;-74
2022/02/25 11:42:40;;;;;;;;;;;20.70;25.40;;;;;;469427;253;1067;-74
2022/02/25 11:44:41;;;;;;;;;;;20.70;25.40;;;;;;469491;253;1060;-74
2022/02/25 11:46:44;;;;;;;;;;;20.70;25.40;;;;;;469462;253;1175;-74
2022/02/25 11:48:44;;;;;;;;;;;20.70;25.40;;;;;;469378;253;1534;-74
2022/02/25 11:50:45;;;;;;;;;;;20.70;25.30;;;;;;469539;253;1006;-74
2022/02/25 11:52:46;;;;;;;;;;;20.80;25.30;;;;;;469591;254;1265;-74
2022/02/25 11:54:48;;;;;;;;;;;20.90;25.20;;;;;;469720;254;985;-74
2022/02/25 11:56:49;;;;;;;;;;;20.90;25.10;;;;;;469639;253;1341;-74
2022/02/25 11:58:50;;;;;;;;;;;21.00;25.00;;;;;;469804;253;2191;-73
2022/02/25 12:00:51;;;;;;;;;;;21.00;24.90;;;;;;469781;254;1319;-74
2022/02/25 12:02:53;;;;;;;;;;;21.00;24.90;;;;;;469866;254;1115;-74
2022/02/25 12:04:54;;;;;;;;;;;21.00;24.90;;;;;;469638;253;1328;-74